Time;durP1;ratioP1;P1;durP2;ratioP2;P2;SDS_P1;SDS_P2;PMS_P1;PMS_P2;Temp;Humidity;BMP_temperature;BMP_pressure;BME280_temperature;BME280_humidity;BME280_pressure;Samples;Min_cycle;Max_cycle;Signal;HPM_P1;HPM_P2
2022/07/28 00:01:42;;;;;;;4.38;0.65;;;;;;;13.62;63.71;100901.84;4837640;29;20048;-78
2022/07/28 00:05:36;;;;;;;3.88;0.70;;;;;;;14.00;61.71;100914.47;4821120;29;20060;-77
2022/07/28 00:18:43;;;;;;;2.55;0.77;;;;;;;13.53;63.28;100911.13;4865171;29;20083;-76
2022/07/28 01:07:23;;;;;;;;;;;;;;;;;;;;;
2022/07/28 01:22:21;;;;;;;4.70;0.68;;;;;;;12.51;67.52;100878.38;4871933;29;20153;-77
2022/07/28 01:37:59;;;;;;;4.13;1.10;;;;;;;12.40;68.21;100880.72;4754877;29;20058;-77
2022/07/28 01:43:07;;;;;;;;;;;;;;;;;;;;;
2022/07/28 04:18:46;;;;;;;1.90;0.70;;;;;;;11.04;72.23;100828.31;4950527;29;20055;-86
2022/07/28 04:21:59;;;;;;;4.25;1.23;;;;;;;10.87;73.08;100827.38;4951700;29;20046;-85
2022/07/28 04:25:04;;;;;;;6.22;1.10;;;;;;;11.07;72.65;100836.91;4950334;29;20159;-75
2022/07/28 04:28:08;;;;;;;4.32;0.70;;;;;;;11.21;72.18;100824.91;4950398;29;20568;-75
2022/07/28 04:31:11;;;;;;;3.72;0.80;;;;;;;11.17;72.31;100839.91;4950983;29;20042;-75
2022/07/28 04:34:14;;;;;;;5.53;0.90;;;;;;;11.10;72.86;100830.66;4950810;29;20069;-75
2022/07/28 04:37:18;;;;;;;5.80;2.03;;;;;;;11.18;72.50;100826.72;4950230;29;20079;-75
2022/07/28 04:40:21;;;;;;;;;;;;;;;11.16;72.84;100827.72;4951089;29;20046;-75
2022/07/28 04:43:25;;;;;;;2.72;0.90;;;;;;;11.56;71.06;100823.09;4950467;29;19921;-76
2022/07/28 04:46:29;;;;;;;4.70;1.35;;;;;;;11.74;70.07;100818.66;4949862;29;20046;-74
2022/07/28 04:49:32;;;;;;;3.53;0.88;;;;;;;11.79;70.71;100827.97;4933963;29;20489;-75
2022/07/28 04:52:37;;;;;;;3.78;1.23;;;;;;;11.68;70.53;100827.72;4935290;29;20457;-73
2022/07/28 04:55:39;;;;;;;7.68;1.48;;;;;;;11.51;72.36;100823.31;4934579;29;20156;-71
2022/07/28 04:58:43;;;;;;;4.10;1.02;;;;;;;11.68;71.33;100824.22;4931463;29;20400;-71
2022/07/28 05:01:46;;;;;;;;;;;;;;;11.44;72.60;100826.34;4935033;29;20179;-71
2022/07/28 05:04:49;;;;;;;4.80;0.70;;;;;;;11.62;71.09;100818.41;4935245;29;19921;-71
2022/07/28 05:07:53;;;;;;;3.83;1.15;;;;;;;11.58;71.10;100819.50;4935164;29;20054;-72
2022/07/28 05:10:56;;;;;;;2.80;0.90;;;;;;;11.72;70.95;100810.91;4934115;29;20082;-71
2022/07/28 05:13:59;;;;;;;;;;;;;;;11.62;71.79;100809.69;4935121;29;20054;-70
2022/07/28 05:17:03;;;;;;;3.28;0.77;;;;;;;11.49;72.63;100825.19;4934521;29;19925;-71
2022/07/28 05:20:07;;;;;;;5.57;0.90;;;;;;;11.51;71.58;100823.31;4934746;29;20516;-72
2022/07/28 05:23:11;;;;;;;2.72;0.90;;;;;;;11.39;72.21;100822.19;4935139;29;20518;-71
2022/07/28 05:26:15;;;;;;;4.43;0.90;;;;;;;11.56;72.44;100820.47;4933881;29;20058;-71
2022/07/28 05:29:18;;;;;;;2.42;0.80;;;;;;;12.05;70.60;100818.75;4933327;29;20522;-72
2022/07/28 05:32:21;;;;;;;2.60;0.88;;;;;;;12.21;70.03;100823.19;4934191;29;20046;-72
2022/07/28 05:35:25;;;;;;;3.40;1.08;;;;;;;12.00;70.66;100820.81;4934161;29;20482;-71
2022/07/28 05:38:29;;;;;;;;;;;;;;;12.00;69.76;100817.34;4934258;29;20059;-73
2022/07/28 05:41:34;;;;;;;4.65;0.95;;;;;;;12.13;69.41;100814.91;4934803;29;19987;-79
2022/07/28 05:44:37;;;;;;;7.93;1.10;;;;;;;12.13;69.75;100823.59;4934704;29;20058;-85
2022/07/28 05:47:45;;;;;;;5.20;0.88;;;;;;;12.54;68.40;100823.97;4934148;29;20050;-81
2022/07/28 05:50:50;;;;;;;6.82;0.70;;;;;;;12.90;66.71;100820.19;4934016;29;20082;-79
2022/07/28 05:53:54;;;;;;;8.98;1.20;;;;;;;13.08;65.37;100818.31;4933471;29;20055;-80
2022/07/28 05:56:57;;;;;;;7.07;1.20;;;;;;;13.20;64.88;100817.56;4933834;29;20099;-79
2022/07/28 06:00:03;;;;;;;6.90;1.90;;;;;;;13.35;64.37;100813.22;4932382;29;20098;-81
2022/07/28 06:03:15;;;;;;;11.70;1.05;;;;;;;13.36;63.84;100816.69;4933579;29;20525;-79
2022/07/28 06:06:19;;;;;;;5.78;1.27;;;;;;;13.12;65.37;100811.94;4933514;29;20107;-82
2022/07/28 06:09:22;;;;;;;5.45;0.85;;;;;;;13.07;65.41;100811.34;4933773;29;20196;-84
2022/07/28 06:12:25;;;;;;;7.07;1.23;;;;;;;13.02;66.50;100816.03;4934284;29;20112;-83
2022/07/28 06:15:41;;;;;;;5.25;0.93;;;;;;;13.29;66.38;100812.75;4921941;29;20103;-88
2022/07/28 06:18:44;;;;;;;5.85;1.13;;;;;;;13.36;66.25;100819.31;4934271;29;20118;-86
2022/07/28 06:21:51;;;;;;;4.85;1.02;;;;;;;13.26;67.18;100809.34;4933285;29;20601;-81
2022/07/28 06:24:58;;;;;;;8.70;1.00;;;;;;;13.37;66.36;100806.13;4933297;29;20118;-80
2022/07/28 06:28:02;;;;;;;4.45;0.93;;;;;;;13.46;66.12;100810.81;4933083;29;20046;-82
2022/07/28 06:31:05;;;;;;;10.50;1.50;;;;;;;13.42;67.16;100801.41;4930274;29;20100;-82
2022/07/28 06:34:09;;;;;;;10.55;1.13;;;;;;;13.48;67.43;100802.84;4930701;29;20196;-83
2022/07/28 06:37:12;;;;;;;13.35;1.95;;;;;;;13.61;66.70;100811.66;4932849;29;20046;-79
2022/07/28 06:40:17;;;;;;;18.80;2.65;;;;;;;13.78;66.14;100796.66;4933880;29;20123;-81
2022/07/28 06:43:20;;;;;;;12.32;1.30;;;;;;;14.07;65.27;100800.97;4921775;29;20045;-82
2022/07/28 06:46:25;;;;;;;9.95;1.00;;;;;;;14.09;65.65;100803.50;4933320;29;20074;-82
2022/07/28 06:49:28;;;;;;;13.07;1.42;;;;;;;14.25;65.20;100803.38;4932245;29;20050;-82
2022/07/28 06:52:33;;;;;;;8.95;1.80;;;;;;;14.43;64.79;100799.59;4931703;29;20130;-79
2022/07/28 06:55:40;;;;;;;10.93;1.27;;;;;;;14.57;64.28;100807.44;4931683;29;20098;-80
2022/07/28 06:58:43;;;;;;;11.35;1.40;;;;;;;14.72;63.54;100810.06;4931578;29;20074;-80
2022/07/28 07:01:46;;;;;;;9.93;1.25;;;;;;;14.78;62.43;100807.03;4932199;29;20421;-79
2022/07/28 07:04:50;;;;;;;6.00;1.58;;;;;;;14.88;62.08;100798.41;4928361;29;20098;-84
2022/07/28 07:07:54;;;;;;;10.23;2.55;;;;;;;14.99;61.14;100781.88;4932066;29;20111;-84
2022/07/28 07:10:57;;;;;;;5.63;1.15;;;;;;;15.26;60.49;100792.38;4931049;29;20054;-84
2022/07/28 07:14:00;;;;;;;5.93;0.98;;;;;;;15.42;59.72;100786.91;4930292;29;20138;-84
2022/07/28 07:17:03;;;;;;;7.43;1.40;;;;;;;15.58;59.12;100779.63;4930963;29;20098;-83
2022/07/28 07:20:08;;;;;;;5.63;1.02;;;;;;;15.71;58.67;100784.09;4928578;29;20072;-83
2022/07/28 07:23:11;;;;;;;9.60;1.58;;;;;;;15.89;58.57;100787.22;4912155;29;20426;-82
2022/07/28 07:26:15;;;;;;;7.47;1.30;;;;;;;15.83;57.42;100777.13;4928923;29;20537;-83
2022/07/28 07:29:21;;;;;;;5.25;1.23;;;;;;;15.98;57.52;100768.09;4930485;29;20046;-83
2022/07/28 07:32:25;;;;;;;5.50;1.30;;;;;;;16.10;57.23;100761.13;4930691;29;20632;-82
2022/07/28 07:35:28;;;;;;;7.90;1.38;;;;;;;16.21;56.30;100750.66;4930901;29;20123;-82
2022/07/28 07:38:31;;;;;;;5.80;0.95;;;;;;;16.33;56.51;100754.19;4931432;29;20051;-82
2022/07/28 07:41:35;;;;;;;5.18;1.23;;;;;;;16.43;55.89;100756.06;4919690;29;20111;-82
2022/07/28 07:44:38;;;;;;;7.68;1.15;;;;;;;16.50;54.67;100759.94;4932016;29;20114;-82
2022/07/28 07:47:42;;;;;;;3.70;1.10;;;;;;;16.57;54.86;100754.19;4918098;29;20524;-84
2022/07/28 07:50:45;;;;;;;8.85;1.67;;;;;;;16.73;55.02;100749.47;4930618;29;20107;-67
2022/07/28 07:53:48;;;;;;;18.95;1.67;;;;;;;16.95;55.08;100743.44;4930778;29;20049;-67
2022/07/28 07:56:52;;;;;;;6.00;1.00;;;;;;;17.11;54.21;100743.13;4931099;29;20051;-68
2022/07/28 07:59:55;;;;;;;14.75;1.80;;;;;;;17.18;53.56;100736.41;4931598;29;20090;-68
2022/07/28 08:03:00;;;;;;;6.38;1.75;;;;;;;17.22;52.41;100740.50;4930241;29;20683;-67
2022/07/28 08:06:03;;;;;;;5.47;1.65;;;;;;;17.27;52.97;100738.34;4930737;29;20536;-68
2022/07/28 08:09:07;;;;;;;9.00;0.95;;;;;;;17.49;52.71;100744.63;4929593;29;20098;-67
2022/07/28 08:12:10;;;;;;;7.43;1.50;;;;;;;17.57;51.78;100742.22;4930196;29;20131;-66
2022/07/28 08:15:14;;;;;;;7.78;1.30;;;;;;;17.64;51.81;100741.63;4930666;29;20057;-67
2022/07/28 08:18:17;;;;;;;8.27;1.30;;;;;;;17.85;52.30;100743.56;4911881;29;20063;-67
2022/07/28 08:21:21;;;;;;;7.60;1.17;;;;;;;17.91;50.76;100743.09;4912231;29;20145;-67
2022/07/28 08:24:24;;;;;;;10.68;1.77;;;;;;;17.91;51.03;100739.59;4898804;29;20557;-68
2022/07/28 08:27:28;;;;;;;8.52;1.33;;;;;;;18.12;50.48;100740.50;4911481;29;20111;-68
2022/07/28 08:30:31;;;;;;;4.45;1.23;;;;;;;18.20;50.55;100727.50;4914048;29;20099;-67
2022/07/28 08:33:34;;;;;;;3.90;0.90;;;;;;;18.28;50.94;100727.75;4930456;29;20055;-66
2022/07/28 08:36:38;;;;;;;8.13;1.33;;;;;;;18.38;49.89;100722.53;4931271;29;20054;-67
2022/07/28 08:39:42;;;;;;;7.50;0.98;;;;;;;18.47;49.57;100718.25;4930632;29;20123;-78
2022/07/28 08:42:51;;;;;;;4.53;1.50;;;;;;;18.64;50.08;100719.53;4929154;29;20050;-79
2022/07/28 08:45:57;;;;;;;8.98;1.98;;;;;;;18.71;49.29;100715.41;4928288;29;20095;-79
2022/07/28 08:49:04;;;;;;;6.75;1.30;;;;;;;18.77;49.00;100712.28;4928436;29;20057;-80
2022/07/28 08:52:11;;;;;;;6.93;1.23;;;;;;;18.93;48.82;100711.84;4929336;29;20051;-79
2022/07/28 08:55:21;;;;;;;5.93;1.25;;;;;;;19.03;48.52;100708.25;4929155;29;20075;-80
2022/07/28 08:58:24;;;;;;;4.38;1.00;;;;;;;19.11;48.99;100707.59;4929414;29;20469;-81
2022/07/28 09:01:28;;;;;;;4.85;1.20;;;;;;;19.20;48.24;100698.03;4930218;29;20078;-80
2022/07/28 09:04:35;;;;;;;10.70;1.50;;;;;;;19.23;48.60;100698.59;4930182;29;20102;-79
2022/07/28 09:07:40;;;;;;;7.25;1.50;;;;;;;19.39;48.50;100689.31;4930539;29;20047;-79
2022/07/28 09:10:45;;;;;;;5.07;1.35;;;;;;;19.33;48.13;100697.81;4930608;29;20417;-80
2022/07/28 09:13:48;;;;;;;6.63;1.77;;;;;;;19.48;48.76;100693.84;4924921;29;20100;-80
2022/07/28 09:16:52;;;;;;;5.32;1.08;;;;;;;19.60;47.80;100687.47;4910849;29;20490;-81
2022/07/28 09:19:55;;;;;;;5.60;1.52;;;;;;;19.63;47.81;100683.72;4917425;29;20126;-81
2022/07/28 09:23:05;;;;;;;7.20;1.20;;;;;;;19.96;47.79;100693.16;4919262;29;20035;-80
2022/07/28 09:26:09;;;;;;;5.65;1.33;;;;;;;20.01;46.73;100679.50;4919569;29;20075;-78
2022/07/28 09:29:22;;;;;;;6.57;1.75;;;;;;;20.01;46.74;100672.38;4915901;29;20097;-79
2022/07/28 09:32:26;;;;;;;5.80;1.48;;;;;;;20.16;46.51;100668.31;4910653;29;20103;-79
2022/07/28 09:35:30;;;;;;;7.53;1.25;;;;;;;20.18;46.00;100671.69;4931872;29;20573;-80
2022/07/28 09:38:39;;;;;;;8.23;1.30;;;;;;;20.14;46.18;100670.28;4922009;29;20059;-78
2022/07/28 09:41:54;;;;;;;7.05;1.60;;;;;;;20.40;46.00;100669.75;4933405;29;20609;-78
2022/07/28 09:45:05;;;;;;;6.45;0.95;;;;;;;20.55;45.82;100671.03;4933574;29;20042;-78
2022/07/28 09:48:13;;;;;;;7.25;1.50;;;;;;;20.61;45.85;100662.50;4932825;29;20139;-80
2022/07/28 09:51:19;;;;;;;5.70;1.23;;;;;;;20.72;45.11;100658.84;4921716;29;20457;-79
2022/07/28 09:54:22;;;;;;;7.55;1.42;;;;;;;20.72;45.38;100658.00;4933861;29;20057;-79
2022/07/28 09:57:27;;;;;;;7.60;1.10;;;;;;;20.95;45.20;100659.34;4934174;29;20138;-79
2022/07/28 10:00:31;;;;;;;6.97;1.42;;;;;;;21.07;45.26;100657.34;4933887;29;20134;-79
2022/07/28 10:03:37;;;;;;;9.43;1.48;;;;;;;21.19;44.12;100650.88;4933724;29;20050;-79
2022/07/28 10:06:40;;;;;;;10.20;1.33;;;;;;;21.27;44.70;100648.31;4933213;29;20090;-79
2022/07/28 10:09:55;;;;;;;4.82;1.08;;;;;;;21.41;43.78;100649.69;4932556;29;20103;-79
2022/07/28 10:13:05;;;;;;;8.73;1.90;;;;;;;21.34;44.59;100648.56;4914122;29;20094;-79
2022/07/28 10:16:11;;;;;;;9.45;1.45;;;;;;;21.46;43.78;100641.28;4914244;29;20126;-79
2022/07/28 10:19:15;;;;;;;6.63;1.42;;;;;;;21.56;43.90;100634.91;4913134;29;20087;-79
2022/07/28 10:22:20;;;;;;;4.15;1.92;;;;;;;21.74;44.58;100639.44;4914004;29;20054;-78
2022/07/28 10:25:25;;;;;;;4.47;1.30;;;;;;;21.78;44.05;100638.13;4921799;29;20413;-80
2022/07/28 10:28:33;;;;;;;5.72;1.13;;;;;;;21.75;43.99;100627.78;4932694;29;20060;-78
2022/07/28 10:36:34;;;;;;;8.27;1.70;;;;;;;21.89;43.77;100603.34;4841457;29;20215;-79
2022/07/28 10:39:43;;;;;;;5.15;1.70;;;;;;;22.03;43.11;100602.78;4920764;29;20083;-79
2022/07/28 10:42:47;;;;;;;6.65;1.40;;;;;;;22.28;42.70;100590.56;4933043;29;20130;-79
2022/07/28 10:45:51;;;;;;;6.72;1.50;;;;;;;22.49;42.37;100590.22;4925996;29;20043;-79
2022/07/28 10:48:54;;;;;;;5.18;1.20;;;;;;;22.50;42.49;100599.03;4932505;29;20047;-79
2022/07/28 10:51:57;;;;;;;8.02;1.25;;;;;;;22.63;41.72;100594.13;4933459;29;20050;-79
2022/07/28 10:55:07;;;;;;;9.73;1.30;;;;;;;22.83;41.13;100589.41;4933235;29;20051;-79
2022/07/28 10:58:39;;;;;;;7.13;1.60;;;;;;;22.84;40.38;100591.06;4933081;29;20078;-79
2022/07/28 11:01:43;;;;;;;5.13;1.42;;;;;;;23.02;40.33;100587.56;4932778;29;20521;-78
2022/07/28 11:04:54;;;;;;;4.93;1.45;;;;;;;23.12;40.54;100582.94;4921131;29;20091;-80
2022/07/28 11:08:06;;;;;;;4.78;1.52;;;;;;;23.23;40.59;100582.66;4918860;29;20054;-79
2022/07/28 11:11:10;;;;;;;4.28;1.27;;;;;;;23.42;40.23;100574.38;4913687;29;20078;-78
2022/07/28 11:14:23;;;;;;;3.75;1.10;;;;;;;23.50;39.09;100578.06;4912929;29;20066;-79
2022/07/28 11:17:27;;;;;;;5.60;1.55;;;;;;;23.93;39.18;100565.47;4932736;29;20051;-79
2022/07/28 11:20:50;;;;;;;5.43;1.33;;;;;;;23.82;38.71;100550.63;4932175;29;20039;-70
2022/07/28 11:23:56;;;;;;;7.13;1.58;;;;;;;23.54;38.66;100561.53;4932418;29;20519;-69
2022/07/28 11:27:00;;;;;;;6.82;1.55;;;;;;;23.73;38.94;100555.09;4932594;29;20054;-70
2022/07/28 11:30:04;;;;;;;10.02;2.00;;;;;;;23.74;38.64;100558.59;4931843;29;20098;-72
2022/07/28 11:33:08;;;;;;;4.13;1.42;;;;;;;23.52;38.69;100546.72;4931879;29;20095;-67
2022/07/28 11:36:12;;;;;;;5.57;1.33;;;;;;;23.53;39.41;100553.72;4931516;29;20054;-69
2022/07/28 11:39:23;;;;;;;5.18;1.20;;;;;;;23.44;39.94;100559.00;4932145;29;20093;-69
2022/07/28 11:42:29;;;;;;;7.03;1.58;;;;;;;23.39;39.33;100553.34;4931723;29;20054;-68
2022/07/28 11:45:33;;;;;;;7.35;1.48;;;;;;;23.39;40.06;100542.69;4932359;29;20464;-70
2022/07/28 11:48:38;;;;;;;7.57;1.63;;;;;;;23.43;39.98;100541.34;4932243;29;20050;-69
2022/07/28 11:52:12;;;;;;;6.00;1.80;;;;;;;23.51;40.02;100540.50;4931814;29;20043;-69
2022/07/28 11:55:17;;;;;;;7.03;1.45;;;;;;;23.54;40.43;100539.34;4931951;29;20057;-69
2022/07/28 11:58:24;;;;;;;6.32;1.38;;;;;;;23.53;40.25;100532.38;4931731;29;20421;-70
2022/07/28 12:01:27;;;;;;;12.00;2.30;;;;;;;23.54;40.14;100526.00;4932024;29;20051;-68
2022/07/28 12:04:31;;;;;;;6.78;1.80;;;;;;;23.65;41.10;100525.72;4931398;29;20041;-68
2022/07/28 12:07:37;;;;;;;5.15;1.05;;;;;;;23.72;40.31;100526.75;4931834;29;20126;-68
2022/07/28 12:10:41;;;;;;;5.13;1.40;;;;;;;23.86;39.97;100526.06;4931554;29;20054;-67
2022/07/28 12:13:44;;;;;;;4.55;1.17;;;;;;;24.00;39.21;100523.75;4932073;29;20075;-67
2022/07/28 12:16:51;;;;;;;6.28;1.70;;;;;;;24.29;38.84;100524.06;4931822;29;20198;-66
2022/07/28 12:20:07;;;;;;;6.00;1.55;;;;;;;24.44;38.67;100521.56;4931385;29;20051;-68
2022/07/28 12:23:11;;;;;;;4.38;1.20;;;;;;;24.75;37.84;100518.94;4931781;29;20520;-68
2022/07/28 12:26:29;;;;;;;6.28;1.40;;;;;;;25.07;36.82;100517.16;4931479;29;20086;-68
2022/07/28 12:29:33;;;;;;;5.60;1.40;;;;;;;25.07;36.93;100506.44;4931419;29;20054;-66
2022/07/28 12:32:38;;;;;;;4.03;1.25;;;;;;;25.09;36.99;100499.09;4931239;29;20055;-69
2022/07/28 12:35:57;;;;;;;5.03;1.48;;;;;;;24.90;36.91;100502.19;4912784;29;20418;-69
2022/07/28 12:39:02;;;;;;;7.68;1.35;;;;;;;24.95;37.11;100499.81;4912194;29;20059;-68
2022/07/28 12:42:11;;;;;;;6.68;1.20;;;;;;;24.94;36.37;100500.84;4912069;29;20059;-69
2022/07/28 12:45:15;;;;;;;3.90;1.30;;;;;;;24.76;36.56;100507.28;4927303;29;20046;-69
2022/07/28 12:48:18;;;;;;;4.22;1.10;;;;;;;24.70;36.54;100502.63;4930123;29;20059;-69
2022/07/28 12:51:33;;;;;;;6.55;1.13;;;;;;;24.70;37.80;100497.25;4924343;29;20104;-69
2022/07/28 12:54:36;;;;;;;9.75;1.55;;;;;;;24.77;37.73;100500.06;4912002;29;20119;-69
2022/07/28 12:57:44;;;;;;;3.80;1.02;;;;;;;24.69;36.19;100490.22;4912120;29;20155;-69
2022/07/28 13:00:49;;;;;;;7.05;1.73;;;;;;;24.75;35.98;100492.22;4912460;29;20636;-86
2022/07/28 13:03:53;;;;;;;6.10;1.20;;;;;;;24.84;36.21;100490.34;4928755;29;20110;-76
2022/07/28 13:06:56;;;;;;;5.82;1.20;;;;;;;25.03;36.30;100494.44;4930384;29;20042;-77
2022/07/28 13:10:06;;;;;;;7.43;1.27;;;;;;;25.28;35.66;100479.13;4920548;29;20516;-79
2022/07/28 13:13:10;;;;;;;9.45;1.17;;;;;;;25.29;35.19;100484.28;4934632;29;20050;-80
2022/07/28 13:16:17;;;;;;;10.90;1.48;;;;;;;25.21;34.88;100476.31;4934627;29;20058;-78
2022/07/28 13:19:20;;;;;;;20.92;1.70;;;;;;;25.72;35.37;100481.97;4934644;29;20046;-66
2022/07/28 13:22:28;;;;;;;3.25;0.80;;;;;;;25.91;33.63;100472.63;4935398;29;20648;-66
2022/07/28 13:25:33;;;;;;;5.75;1.33;;;;;;;26.14;34.27;100477.13;4935050;29;20082;-67
2022/07/28 13:28:38;;;;;;;5.20;1.08;;;;;;;26.28;33.86;100473.59;4934767;29;20130;-69
2022/07/28 13:31:41;;;;;;;4.95;1.05;;;;;;;26.47;34.72;100477.59;4933960;29;20127;-67
2022/07/28 13:34:44;;;;;;;3.42;1.10;;;;;;;26.81;33.34;100462.81;4934106;29;20136;-68
2022/07/28 13:37:47;;;;;;;4.60;1.20;;;;;;;27.21;31.89;100457.91;4934120;29;20106;-68
2022/07/28 13:40:51;;;;;;;6.43;1.15;;;;;;;27.23;31.31;100453.19;4934705;29;20050;-68
2022/07/28 13:43:57;;;;;;;4.55;1.20;;;;;;;27.73;30.78;100451.38;4934550;29;20139;-68
2022/07/28 13:47:02;;;;;;;5.25;1.10;;;;;;;27.83;30.32;100457.28;4934639;29;20046;-68
2022/07/28 13:50:06;;;;;;;5.40;1.17;;;;;;;28.03;30.67;100447.50;4934039;29;20078;-68
2022/07/28 13:53:10;;;;;;;8.63;1.40;;;;;;;27.82;30.84;100442.16;4933709;29;20099;-68
2022/07/28 13:56:13;;;;;;;2.70;0.93;;;;;;;26.42;31.84;100450.50;4929186;29;20469;-68
2022/07/28 13:59:17;;;;;;;4.57;1.05;;;;;;;26.30;33.06;100450.13;4917704;29;20127;-68
2022/07/28 14:02:23;;;;;;;6.10;1.48;;;;;;;26.33;33.35;100448.94;4922840;29;20054;-70
2022/07/28 14:05:27;;;;;;;5.18;1.30;;;;;;;26.58;32.33;100442.31;4934318;29;20098;-68
2022/07/28 14:08:30;;;;;;;10.10;1.55;;;;;;;26.84;32.52;100447.16;4934051;29;20107;-68
2022/07/28 14:11:34;;;;;;;4.35;1.45;;;;;;;27.83;30.76;100445.72;4933897;29;20051;-68
2022/07/28 14:14:40;;;;;;;4.88;1.52;;;;;;;27.06;31.07;100441.84;4932785;29;20054;-67
2022/07/28 14:17:48;;;;;;;5.15;0.90;;;;;;;28.03;30.38;100439.44;4933386;29;20277;-69
2022/07/28 14:20:51;;;;;;;5.43;1.13;;;;;;;26.77;32.92;100434.66;4932400;29;20500;-68
2022/07/28 14:23:54;;;;;;;12.38;1.45;;;;;;;26.32;33.49;100431.16;4932935;29;20168;-68
2022/07/28 14:26:58;;;;;;;7.40;2.33;;;;;;;25.98;33.93;100436.06;4920999;29;20059;-67
2022/07/28 14:30:03;;;;;;;3.08;1.10;;;;;;;25.73;35.43;100437.28;4914189;29;20111;-66
2022/07/28 14:33:06;;;;;;;4.85;1.10;;;;;;;25.81;34.54;100429.19;4914385;29;20051;-67
2022/07/28 14:36:10;;;;;;;4.72;1.13;;;;;;;26.01;34.01;100437.56;4912136;29;20051;-66
2022/07/28 14:39:13;;;;;;;8.02;1.08;;;;;;;26.03;34.95;100438.19;4912207;29;20055;-66
2022/07/28 14:42:17;;;;;;;7.05;1.10;;;;;;;26.33;33.31;100427.50;4915544;29;20046;-67
2022/07/28 14:45:21;;;;;;;5.32;1.20;;;;;;;26.95;33.01;100424.38;4920600;29;20126;-66
2022/07/28 14:48:25;;;;;;;8.25;1.00;;;;;;;26.67;32.66;100419.72;4931987;29;20075;-68
2022/07/28 14:52:18;;;;;;;4.45;1.00;;;;;;;27.10;31.47;100424.31;4931787;29;20461;-67
2022/07/28 14:55:21;;;;;;;10.50;1.45;;;;;;;27.00;32.16;100421.13;4918273;29;20111;-69
2022/07/28 14:58:25;;;;;;;4.15;0.90;;;;;;;26.78;32.10;100422.94;4927807;29;20054;-67
2022/07/28 15:01:28;;;;;;;7.32;1.00;;;;;;;27.15;31.56;100421.91;4914057;29;20848;-67
2022/07/28 15:04:33;;;;;;;8.63;1.13;;;;;;;27.95;30.41;100423.47;4913395;29;20514;-68
2022/07/28 15:07:36;;;;;;;5.40;1.00;;;;;;;27.62;31.55;100417.00;4913119;29;20615;-67
2022/07/28 15:10:40;;;;;;;4.60;0.88;;;;;;;27.54;30.77;100413.41;4922839;29;20074;-68
2022/07/28 15:13:43;;;;;;;6.03;1.75;;;;;;;27.51;31.03;100411.13;4926922;29;20066;-67
2022/07/28 15:16:46;;;;;;;3.33;1.10;;;;;;;27.46;31.92;100413.53;4918554;29;20046;-68
2022/07/28 15:19:55;;;;;;;4.53;1.33;;;;;;;27.13;31.65;100406.00;4930633;29;20062;-68
2022/07/28 15:22:59;;;;;;;4.57;1.08;;;;;;;26.86;31.59;100407.53;4930853;29;20058;-66
2022/07/28 15:26:03;;;;;;;5.25;1.27;;;;;;;26.29;33.42;100410.09;4930365;29;20063;-68
2022/07/28 15:29:06;;;;;;;6.05;1.48;;;;;;;26.07;33.42;100409.16;4929882;29;20054;-68
2022/07/28 15:32:15;;;;;;;3.50;1.10;;;;;;;26.00;34.56;100411.75;4910798;29;20139;-69
2022/07/28 15:35:19;;;;;;;7.00;1.13;;;;;;;25.74;34.57;100401.44;4911428;29;20055;-69
2022/07/28 15:38:23;;;;;;;7.93;1.38;;;;;;;25.50;34.48;100414.03;4914305;29;20127;-70
2022/07/28 15:41:26;;;;;;;5.65;1.17;;;;;;;25.41;34.68;100406.25;4930670;29;20047;-69
2022/07/28 15:44:29;;;;;;;31.70;1.98;;;;;;;25.31;34.98;100406.50;4930693;29;20050;-69
2022/07/28 15:47:32;;;;;;;10.30;1.60;;;;;;;25.13;34.78;100397.94;4930070;29;20063;-68
2022/07/28 15:50:47;;;;;;;4.57;1.08;;;;;;;25.15;34.80;100399.44;4930085;29;20172;-68
2022/07/28 15:53:54;;;;;;;5.78;1.08;;;;;;;24.99;36.48;100386.13;4929829;29;20058;-68
2022/07/28 15:56:59;;;;;;;3.08;1.25;;;;;;;24.96;35.92;100386.50;4918874;29;20739;-69
2022/07/28 16:00:03;;;;;;;4.38;1.38;;;;;;;24.86;36.10;100385.88;4928178;29;20067;-69
2022/07/28 16:03:10;;;;;;;5.50;1.27;;;;;;;24.92;36.28;100395.84;4928303;29;20103;-69
2022/07/28 16:06:13;;;;;;;6.43;1.25;;;;;;;24.92;36.05;100390.50;4928143;29;20062;-69
2022/07/28 16:09:18;;;;;;;4.90;1.50;;;;;;;24.91;36.91;100378.97;4928331;29;20094;-69
2022/07/28 16:12:24;;;;;;;4.28;1.10;;;;;;;24.89;36.47;100389.03;4922949;29;20179;-68
2022/07/28 16:15:27;;;;;;;7.97;1.20;;;;;;;24.89;36.54;100385.50;4909546;29;20138;-67
2022/07/28 16:18:31;;;;;;;6.03;1.67;;;;;;;24.89;36.24;100386.38;4910431;29;20055;-69
2022/07/28 16:21:35;;;;;;;7.40;1.20;;;;;;;24.79;37.31;100375.91;4919580;29;20538;-68
2022/07/28 16:24:39;;;;;;;5.10;1.15;;;;;;;24.72;37.14;100380.25;4928153;29;20082;-69
2022/07/28 16:27:43;;;;;;;5.75;1.30;;;;;;;24.67;37.91;100369.28;4928665;29;20051;-69
2022/07/28 16:30:47;;;;;;;3.85;0.93;;;;;;;24.60;37.26;100376.31;4927918;29;20424;-71
2022/07/28 16:33:50;;;;;;;6.00;1.20;;;;;;;24.62;37.13;100368.97;4928188;29;20413;-70
2022/07/28 16:36:54;;;;;;;9.73;1.40;;;;;;;24.57;37.02;100366.81;4928229;29;20481;-69
2022/07/28 16:39:58;;;;;;;6.10;1.10;;;;;;;24.53;38.36;100375.34;4909956;29;20271;-70
2022/07/28 16:43:06;;;;;;;2.17;0.85;;;;;;;24.55;37.56;100363.47;4911632;29;20098;-69
2022/07/28 16:46:11;;;;;;;5.57;1.60;;;;;;;24.59;36.73;100372.81;4914050;29;20054;-68
2022/07/28 16:49:14;;;;;;;6.05;1.13;;;;;;;24.48;38.36;100370.53;4921401;29;20046;-69
2022/07/28 16:52:18;;;;;;;6.85;1.10;;;;;;;24.52;36.97;100368.34;4933652;29;20115;-69
2022/07/28 16:55:25;;;;;;;5.95;1.60;;;;;;;24.56;37.58;100369.66;4933610;29;20103;-69
2022/07/28 16:58:28;;;;;;;4.57;1.40;;;;;;;24.59;36.13;100367.47;4933697;29;20055;-69
2022/07/28 17:01:32;;;;;;;6.60;1.48;;;;;;;24.66;37.98;100366.75;4937440;29;20042;-68
2022/07/28 17:04:35;;;;;;;8.98;1.08;;;;;;;24.59;39.00;100366.63;4924075;29;20074;-68
2022/07/28 17:07:43;;;;;;;4.05;1.30;;;;;;;24.60;37.92;100362.94;4935272;29;20520;-68
2022/07/28 17:10:46;;;;;;;5.78;1.23;;;;;;;24.61;37.30;100364.63;4923128;29;20453;-69
2022/07/28 17:13:50;;;;;;;5.10;1.15;;;;;;;24.57;37.59;100357.97;4932727;29;20073;-68
2022/07/28 17:16:53;;;;;;;7.13;1.20;;;;;;;24.55;37.84;100362.66;4916473;29;20555;-68
2022/07/28 17:19:57;;;;;;;4.95;1.10;;;;;;;24.49;38.01;100363.34;4915995;29;20043;-68
2022/07/28 17:23:00;;;;;;;11.73;1.45;;;;;;;24.48;38.21;100367.03;4915059;29;20046;-68
2022/07/28 17:26:05;;;;;;;5.13;1.15;;;;;;;24.48;38.86;100367.88;4915958;29;20043;-68
2022/07/28 17:29:09;;;;;;;5.38;1.30;;;;;;;24.42;38.56;100367.72;4929599;29;20054;-68
2022/07/28 17:32:13;;;;;;;5.60;1.30;;;;;;;24.36;38.03;100364.72;4934849;29;20131;-68
2022/07/28 17:35:16;;;;;;;6.07;1.20;;;;;;;24.35;38.17;100356.88;4934555;29;20131;-68
2022/07/28 17:38:23;;;;;;;7.00;1.33;;;;;;;24.33;38.59;100364.22;4934118;29;20539;-68
2022/07/28 17:41:27;;;;;;;4.75;1.50;;;;;;;24.24;39.34;100363.41;4934999;29;20490;-67
2022/07/28 17:44:30;;;;;;;5.95;1.60;;;;;;;24.20;39.22;100364.78;4934328;29;20051;-67
2022/07/28 17:47:33;;;;;;;7.38;1.45;;;;;;;24.08;40.39;100361.63;4934375;29;20188;-67
2022/07/28 17:50:37;;;;;;;5.60;1.13;;;;;;;24.04;39.50;100363.00;4934549;29;20103;-66
2022/07/28 17:53:44;;;;;;;4.50;0.90;;;;;;;24.02;38.94;100361.50;4934625;29;20117;-66
2022/07/28 17:56:50;;;;;;;6.20;1.20;;;;;;;23.95;39.26;100366.69;4934683;29;20175;-67
2022/07/28 17:59:57;;;;;;;4.05;1.20;;;;;;;23.87;39.33;100367.56;4934378;29;20043;-68
2022/07/28 18:03:01;;;;;;;8.20;1.30;;;;;;;23.96;39.04;100372.84;4934303;29;20161;-68
2022/07/28 18:06:04;;;;;;;4.05;1.40;;;;;;;23.87;39.62;100364.06;4934332;29;20047;-68
2022/07/28 18:09:09;;;;;;;3.97;1.02;;;;;;;23.83;39.69;100376.88;4933812;29;20564;-69
2022/07/28 18:12:12;;;;;;;4.00;1.33;;;;;;;23.80;39.55;100369.25;4933098;29;20153;-69
2022/07/28 18:15:16;;;;;;;8.13;1.50;;;;;;;23.64;39.17;100370.06;4933583;29;20051;-69
2022/07/28 18:18:19;;;;;;;7.45;1.25;;;;;;;23.66;40.82;100378.72;4934132;29;20090;-67
2022/07/28 18:21:22;;;;;;;7.45;1.70;;;;;;;23.68;41.65;100370.56;4933470;29;20531;-66
2022/07/28 18:24:26;;;;;;;7.00;1.20;;;;;;;23.60;42.26;100370.56;4932675;29;20047;-67
2022/07/28 18:27:29;;;;;;;7.15;1.15;;;;;;;23.51;41.60;100380.41;4932478;29;20050;-69